Time;durP1;ratioP1;P1;durP2;ratioP2;P2;SDS_P1;SDS_P2;PMS_P1;PMS_P2;Temp;Humidity;BMP_temperature;BMP_pressure;BME280_temperature;BME280_humidity;BME280_pressure;Samples;Min_cycle;Max_cycle;Signal;HPM_P1;HPM_P2
2022/09/27 00:01:31;;;;;;;0.82;0.30;;;;;;;13.68;69.13;95438.59;4884792;28;20250;-81
2022/09/27 00:03:59;;;;;;;1.13;0.40;;;;;;;13.67;68.70;95435.22;4870523;28;20202;-80
2022/09/27 00:06:27;;;;;;;1.05;0.80;;;;;;;13.66;68.93;95435.50;4852490;28;20168;-80
2022/09/27 00:08:53;;;;;;;0.30;0.30;;;;;;;13.80;68.08;95445.84;4854449;28;20359;-82
2022/09/27 00:11:31;;;;;;;1.85;0.40;;;;;;;13.55;68.49;95439.50;4865395;28;20698;-81
2022/09/27 00:13:57;;;;;;;0.65;0.45;;;;;;;13.64;68.22;95437.63;4880097;28;20788;-80
2022/09/27 00:16:26;;;;;;;1.00;0.40;;;;;;;13.55;68.17;95444.72;4862598;28;20226;-80
2022/09/27 00:18:51;;;;;;;2.58;0.60;;;;;;;13.66;68.19;95445.97;4854435;28;20681;-81
2022/09/27 00:21:17;;;;;;;2.83;0.85;;;;;;;13.63;68.10;95446.59;4870003;28;20232;-81
2022/09/27 00:23:42;;;;;;;0.88;0.65;;;;;;;13.56;68.42;95441.81;4864022;28;20428;-80
2022/09/27 00:26:11;;;;;;;2.40;0.70;;;;;;;13.42;69.13;95456.84;4882690;28;20230;-80
2022/09/27 00:28:36;;;;;;;2.13;0.70;;;;;;;13.54;68.78;95445.78;4869713;28;20233;-80
2022/09/27 00:31:02;;;;;;;1.73;0.70;;;;;;;13.54;68.84;95449.19;4869494;28;20175;-81
2022/09/27 00:33:28;;;;;;;1.90;1.27;;;;;;;13.62;68.33;95445.03;4847795;28;20815;-80
2022/09/27 00:35:53;;;;;;;6.30;1.27;;;;;;;13.59;68.22;95443.81;4869931;29;20231;-81
2022/09/27 00:38:19;;;;;;;3.97;1.10;;;;;;;13.47;68.61;95446.25;4885300;28;20247;-81
2022/09/27 00:40:45;;;;;;;4.80;1.42;;;;;;;13.58;68.65;95447.50;4872950;28;20175;-81
2022/09/27 00:43:14;;;;;;;1.65;0.82;;;;;;;13.38;68.70;95445.44;4854314;29;20607;-80
2022/09/27 00:45:39;;;;;;;3.60;1.35;;;;;;;13.56;68.72;95446.28;4886675;28;20194;-81
2022/09/27 00:48:05;;;;;;;3.05;1.20;;;;;;;13.48;69.15;95442.56;4857240;28;20228;-80
2022/09/27 00:50:32;;;;;;;6.35;1.92;;;;;;;13.50;69.20;95440.41;4853738;28;20262;-81
2022/09/27 00:53:34;;;;;;;2.25;1.40;;;;;;;13.26;69.39;95441.56;4870133;28;20254;-80
2022/09/27 00:56:07;;;;;;;2.88;1.50;;;;;;;13.37;69.26;95442.06;4877154;28;20265;-81
2022/09/27 00:58:38;;;;;;;2.50;1.50;;;;;;;13.39;69.23;95444.38;4885527;28;20298;-81
2022/09/27 01:01:06;;;;;;;2.67;1.92;;;;;;;13.45;69.12;95446.56;4872085;28;20226;-81
2022/09/27 01:03:50;;;;;;;2.72;1.92;;;;;;;13.30;69.13;95442.50;4881955;28;20214;-81
2022/09/27 01:06:18;;;;;;;2.85;1.83;;;;;;;13.40;69.29;95446.69;4887796;28;20229;-81
2022/09/27 01:08:44;;;;;;;3.30;1.73;;;;;;;13.45;68.88;95435.31;4872489;28;20277;-81
2022/09/27 01:11:13;;;;;;;4.50;2.05;;;;;;;13.39;69.26;95449.63;4869211;29;20294;-82
2022/09/27 01:13:48;;;;;;;4.82;2.35;;;;;;;13.33;68.88;95448.97;4871230;28;20237;-82
2022/09/27 01:16:32;;;;;;;2.67;2.15;;;;;;;13.09;70.19;95438.88;4857049;28;20199;-81
2022/09/27 01:19:09;;;;;;;3.47;1.80;;;;;;;13.26;69.45;95446.78;4854096;28;20198;-80
2022/09/27 01:21:40;;;;;;;3.75;1.98;;;;;;;13.43;69.01;95437.47;4856488;28;20288;-81
2022/09/27 01:24:36;;;;;;;4.97;2.78;;;;;;;13.22;69.71;95448.47;4872274;28;20313;-80
2022/09/27 01:27:51;;;;;;;6.10;2.10;;;;;;;13.22;69.58;95443.22;4872888;28;20197;-81
2022/09/27 01:30:26;;;;;;;3.05;2.42;;;;;;;13.27;69.51;95443.09;4882815;28;20191;-81
2022/09/27 01:33:05;;;;;;;2.72;2.20;;;;;;;13.28;69.71;95439.41;4869500;28;20294;-80
2022/09/27 01:35:41;;;;;;;5.68;2.75;;;;;;;13.38;69.34;95448.06;4888212;28;20221;-81
2022/09/27 01:38:25;;;;;;;6.40;2.50;;;;;;;13.16;69.68;95446.28;4871959;28;20250;-80
2022/09/27 01:40:57;;;;;;;3.58;2.55;;;;;;;13.33;69.71;95442.97;4888557;28;20504;-81
2022/09/27 01:43:33;;;;;;;3.80;2.97;;;;;;;13.17;70.13;95442.59;4856542;28;20230;-82
2022/09/27 01:46:12;;;;;;;5.03;2.83;;;;;;;13.24;69.70;95438.47;4855040;28;20202;-81
2022/09/27 01:48:42;;;;;;;3.72;2.30;;;;;;;13.32;69.44;95444.06;4872131;28;20258;-81
2022/09/27 01:51:11;;;;;;;4.80;2.67;;;;;;;13.36;69.71;95445.00;4872437;28;20244;-81
2022/09/27 01:53:37;;;;;;;8.60;2.90;;;;;;;13.42;69.96;95444.53;4872570;28;20373;-81
2022/09/27 01:56:06;;;;;;;4.55;2.30;;;;;;;13.41;69.66;95448.22;4887546;28;20249;-81
2022/09/27 01:58:38;;;;;;;3.47;2.75;;;;;;;13.33;70.02;95448.97;4870929;28;20321;-81
2022/09/27 02:01:04;;;;;;;4.35;2.67;;;;;;;13.32;69.89;95449.31;4872373;28;20237;-80
2022/09/27 02:03:34;;;;;;;4.63;2.72;;;;;;;13.28;69.76;95454.31;4888165;28;20238;-81
2022/09/27 02:06:04;;;;;;;6.90;2.72;;;;;;;13.18;70.06;95439.69;4888631;28;20199;-81
2022/09/27 02:08:41;;;;;;;4.05;2.65;;;;;;;13.13;70.09;95459.97;4888400;28;20392;-82
2022/09/27 02:11:11;;;;;;;4.45;2.78;;;;;;;13.21;69.90;95454.00;4869329;28;20175;-81
2022/09/27 02:13:42;;;;;;;6.28;2.78;;;;;;;13.22;69.78;95453.69;4888122;28;20246;-82
2022/09/27 02:16:19;;;;;;;4.07;2.75;;;;;;;13.24;69.77;95462.00;4887575;28;20664;-81
2022/09/27 02:18:54;;;;;;;7.20;2.90;;;;;;;13.13;70.02;95463.34;4887801;28;20195;-81
2022/09/27 02:21:20;;;;;;;5.90;2.70;;;;;;;13.29;69.42;95463.69;4888312;28;20270;-80
2022/09/27 02:23:50;;;;;;;2.90;2.50;;;;;;;13.20;69.00;95458.44;4853062;29;20225;-81
2022/09/27 02:26:25;;;;;;;5.60;2.92;;;;;;;13.16;69.16;95469.81;4882096;28;20610;-80
2022/09/27 02:28:59;;;;;;;4.45;2.67;;;;;;;13.16;69.28;95481.03;4879798;28;20290;-80
2022/09/27 02:31:25;;;;;;;3.88;2.65;;;;;;;13.15;69.98;95479.50;4855782;28;20214;-81
2022/09/27 02:34:23;;;;;;;3.20;2.40;;;;;;;13.02;70.02;95482.97;4858367;28;20206;-81
2022/09/27 02:36:49;;;;;;;5.10;2.40;;;;;;;13.17;69.41;95485.19;4868434;29;20249;-81
2022/09/27 02:39:17;;;;;;;5.65;2.17;;;;;;;13.06;69.58;95489.16;4870765;28;20293;-80
2022/09/27 02:41:42;;;;;;;6.03;2.40;;;;;;;13.16;69.31;95490.72;4886920;28;20226;-81
2022/09/27 02:44:10;;;;;;;3.65;2.13;;;;;;;13.07;69.47;95495.91;4886969;28;20213;-80
2022/09/27 02:46:55;;;;;;;3.63;2.50;;;;;;;12.96;69.26;95499.88;4870045;28;20167;-81
2022/09/27 02:49:59;;;;;;;3.47;2.38;;;;;;;12.90;70.33;95497.38;4888912;28;20167;-79
2022/09/27 02:52:40;;;;;;;3.67;1.90;;;;;;;12.87;69.94;95505.81;4868056;29;20261;-81
2022/09/27 02:55:26;;;;;;;6.18;2.08;;;;;;;12.99;69.51;95510.47;4885478;28;20700;-81
2022/09/27 02:58:16;;;;;;;2.92;1.85;;;;;;;12.85;70.04;95504.56;4871095;28;20284;-81
2022/09/27 03:00:55;;;;;;;2.88;1.67;;;;;;;13.01;69.54;95512.81;4871038;28;20808;-82
2022/09/27 03:03:51;;;;;;;4.82;2.35;;;;;;;12.92;69.75;95510.91;4855809;28;20257;-81
2022/09/27 03:06:17;;;;;;;2.88;1.60;;;;;;;12.98;69.61;95514.16;4886628;28;20187;-81
2022/09/27 03:08:43;;;;;;;3.95;2.03;;;;;;;13.09;68.83;95519.88;4871160;28;20171;-81
2022/09/27 03:11:09;;;;;;;3.67;1.75;;;;;;;13.09;68.70;95514.66;4867169;29;20613;-80
2022/09/27 03:13:37;;;;;;;3.00;1.90;;;;;;;12.97;69.10;95522.28;4869811;28;20209;-81
2022/09/27 03:16:06;;;;;;;4.13;1.50;;;;;;;13.07;68.58;95522.03;4884808;28;20298;-81
2022/09/27 03:18:32;;;;;;;4.68;2.63;;;;;;;13.05;68.66;95521.56;4885561;28;20239;-80
2022/09/27 03:20:57;;;;;;;4.80;1.58;;;;;;;12.91;69.07;95522.41;4868307;28;20277;-81
2022/09/27 03:23:23;;;;;;;2.25;1.60;;;;;;;12.95;69.61;95527.06;4868962;28;20282;-82
2022/09/27 03:25:49;;;;;;;2.95;2.22;;;;;;;12.98;68.73;95526.47;4870778;28;20245;-81
2022/09/27 03:28:14;;;;;;;1.95;1.30;;;;;;;13.09;68.03;95540.78;4870206;28;20269;-80
2022/09/27 03:30:40;;;;;;;2.63;1.80;;;;;;;12.89;69.34;95542.84;4857913;28;20277;-80
2022/09/27 03:33:08;;;;;;;4.45;1.85;;;;;;;12.95;68.82;95547.94;4882034;28;20199;-81
2022/09/27 03:35:33;;;;;;;2.15;1.40;;;;;;;13.02;68.48;95545.69;4856242;28;20246;-81
2022/09/27 03:38:06;;;;;;;3.60;2.20;;;;;;;12.93;68.39;95541.16;4872523;28;20285;-81
2022/09/27 03:40:31;;;;;;;3.17;1.52;;;;;;;13.04;68.89;95540.91;4888539;28;20221;-81
2022/09/27 03:42:57;;;;;;;2.05;1.38;;;;;;;12.91;68.60;95547.78;4886737;28;20198;-81
2022/09/27 03:45:22;;;;;;;2.13;1.10;;;;;;;12.86;68.84;95551.28;4887232;28;20629;-80
2022/09/27 03:47:47;;;;;;;2.83;1.17;;;;;;;12.82;68.56;95547.72;4870084;28;20287;-81
2022/09/27 03:50:13;;;;;;;1.65;0.90;;;;;;;12.74;68.57;95557.03;4855973;28;20574;-80
2022/09/27 03:52:39;;;;;;;2.40;1.38;;;;;;;12.80;69.01;95557.72;4855469;28;20175;-81
2022/09/27 03:55:05;;;;;;;2.97;1.60;;;;;;;12.81;68.47;95559.22;4869733;28;20231;-80
2022/09/27 03:57:30;;;;;;;3.08;0.90;;;;;;;12.73;69.05;95552.91;4870586;28;20203;-81
2022/09/27 03:59:58;;;;;;;2.45;1.45;;;;;;;12.76;68.28;95564.56;4855922;28;20283;-81
2022/09/27 04:02:25;;;;;;;1.83;0.70;;;;;;;12.72;68.32;95564.41;4856621;28;20112;-82
2022/09/27 04:04:50;;;;;;;1.90;1.27;;;;;;;12.81;68.47;95568.91;4887597;28;20124;-82
2022/09/27 04:07:16;;;;;;;2.58;0.90;;;;;;;12.80;67.98;95570.78;4886996;28;20298;-81
2022/09/27 04:09:43;;;;;;;2.15;1.63;;;;;;;12.83;68.00;95575.38;4890816;28;20171;-82
2022/09/27 04:12:09;;;;;;;2.80;0.80;;;;;;;12.80;68.80;95576.00;4891515;28;20100;-81
2022/09/27 04:14:34;;;;;;;1.20;0.60;;;;;;;12.65;68.30;95579.72;4858700;28;20295;-81
2022/09/27 04:17:00;;;;;;;2.13;0.80;;;;;;;12.70;68.49;95573.63;4873942;28;20219;-81
2022/09/27 04:19:26;;;;;;;2.03;1.00;;;;;;;12.79;67.92;95578.91;4892589;28;20332;-80
2022/09/27 04:21:51;;;;;;;1.45;0.90;;;;;;;12.68;68.06;95578.34;4861124;28;20361;-80
2022/09/27 04:24:16;;;;;;;1.00;0.60;;;;;;;12.71;68.49;95580.38;4861602;28;20202;-81
2022/09/27 04:26:42;;;;;;;1.83;0.75;;;;;;;12.51;68.80;95571.94;4886378;28;20187;-82
2022/09/27 04:29:08;;;;;;;1.95;0.60;;;;;;;12.64;68.05;95570.34;4855998;28;20512;-81
2022/09/27 04:31:36;;;;;;;2.05;0.60;;;;;;;12.59;68.51;95570.44;4890285;28;20236;-81
2022/09/27 04:34:06;;;;;;;1.77;0.63;;;;;;;12.49;68.33;95571.47;4868053;28;20318;-82
2022/09/27 04:36:31;;;;;;;1.17;0.55;;;;;;;12.53;68.25;95567.19;4858653;29;20226;-82
2022/09/27 04:38:59;;;;;;;2.38;0.70;;;;;;;12.59;67.93;95574.91;4872140;28;20730;-81
2022/09/27 04:41:26;;;;;;;1.58;0.82;;;;;;;12.65;67.90;95571.13;4896873;28;20195;-80
2022/09/27 04:43:53;;;;;;;1.95;1.00;;;;;;;12.67;67.87;95571.59;4882187;28;20202;-82
2022/09/27 04:46:20;;;;;;;1.13;0.95;;;;;;;12.76;68.23;95577.63;4869208;28;20295;-81
2022/09/27 04:48:48;;;;;;;1.25;1.00;;;;;;;12.74;68.48;95571.94;4876199;28;20238;-80
2022/09/27 04:51:16;;;;;;;4.30;1.48;;;;;;;12.65;68.59;95582.34;4859470;28;20203;-81
2022/09/27 04:53:42;;;;;;;2.22;1.35;;;;;;;12.66;68.80;95581.28;4895368;28;20190;-81
2022/09/27 04:56:08;;;;;;;3.85;1.23;;;;;;;12.66;69.39;95594.34;4901526;28;20308;-81
2022/09/27 04:58:33;;;;;;;1.65;1.20;;;;;;;12.64;68.68;95588.59;4876451;28;20204;-82
2022/09/27 05:01:01;;;;;;;4.35;1.52;;;;;;;12.65;68.76;95586.78;4879410;28;20195;-81
2022/09/27 05:03:27;;;;;;;2.58;1.80;;;;;;;12.57;68.62;95583.03;4875277;28;20175;-81
2022/09/27 05:05:52;;;;;;;2.33;1.90;;;;;;;12.52;69.09;95590.97;4871738;28;20274;-80
2022/09/27 05:08:18;;;;;;;4.63;2.13;;;;;;;12.58;68.87;95599.47;4859416;28;20249;-81
2022/09/27 05:10:43;;;;;;;3.22;2.05;;;;;;;12.55;69.25;95599.00;4880477;28;20229;-82
2022/09/27 05:13:09;;;;;;;3.20;1.48;;;;;;;12.65;68.13;95598.00;4875604;28;20190;-81
2022/09/27 05:15:35;;;;;;;1.67;1.55;;;;;;;12.64;68.68;95609.50;4860841;28;20263;-82
2022/09/27 05:18:00;;;;;;;3.80;1.75;;;;;;;12.63;68.01;95613.19;4875064;28;20206;-81
2022/09/27 05:20:26;;;;;;;2.97;1.67;;;;;;;12.70;68.27;95623.22;4890878;28;20304;-80
2022/09/27 05:22:51;;;;;;;2.75;1.58;;;;;;;12.63;68.10;95621.03;4876115;28;20490;-82
2022/09/27 05:25:17;;;;;;;1.90;1.38;;;;;;;12.58;68.13;95620.34;4891387;28;20182;-80
2022/09/27 05:27:42;;;;;;;2.55;1.08;;;;;;;12.55;68.77;95624.34;4891380;28;20187;-81
2022/09/27 05:30:08;;;;;;;1.77;1.42;;;;;;;12.50;69.21;95619.22;4874503;28;20163;-81
2022/09/27 05:32:34;;;;;;;3.38;1.75;;;;;;;12.46;69.27;95626.88;4890251;28;20433;-81
2022/09/27 05:35:00;;;;;;;2.58;1.65;;;;;;;12.46;68.65;95629.50;4856619;28;20214;-82
2022/09/27 05:37:25;;;;;;;2.75;1.70;;;;;;;12.43;69.49;95635.28;4896933;28;20282;-81
2022/09/27 05:39:51;;;;;;;1.58;1.42;;;;;;;12.49;68.47;95634.13;4870149;28;20295;-81
2022/09/27 05:42:20;;;;;;;2.90;1.70;;;;;;;12.45;68.45;95650.66;4890946;28;20238;-81
2022/09/27 05:44:47;;;;;;;2.40;1.45;;;;;;;12.38;69.56;95639.84;4865328;28;20186;-81
2022/09/27 05:47:14;;;;;;;1.70;1.60;;;;;;;12.45;68.79;95648.03;4873526;29;20270;-81
2022/09/27 05:49:39;;;;;;;2.05;1.13;;;;;;;12.39;68.70;95650.00;4891313;28;20266;-80
2022/09/27 05:52:06;;;;;;;1.55;1.17;;;;;;;12.44;68.50;95652.50;4855073;28;20672;-81
2022/09/27 05:54:31;;;;;;;1.80;1.20;;;;;;;12.38;69.57;95658.13;4864766;28;20172;-80
2022/09/27 05:56:58;;;;;;;1.80;1.30;;;;;;;12.26;69.27;95666.44;4878443;28;20692;-81
2022/09/27 05:59:26;;;;;;;1.50;0.88;;;;;;;12.29;69.43;95668.47;4862986;28;20362;-80
2022/09/27 06:01:53;;;;;;;3.03;0.73;;;;;;;12.31;68.02;95663.72;4878072;28;20937;-80
2022/09/27 06:04:19;;;;;;;1.45;0.98;;;;;;;12.27;68.16;95671.38;4875680;28;20226;-81
2022/09/27 06:06:45;;;;;;;1.92;0.90;;;;;;;12.32;68.69;95662.66;4894513;28;20132;-80
2022/09/27 06:09:14;;;;;;;1.65;1.05;;;;;;;12.31;68.65;95668.97;4878423;28;20219;-81
2022/09/27 06:11:41;;;;;;;2.38;1.25;;;;;;;12.39;68.95;95670.88;4880407;28;20186;-80
2022/09/27 06:14:07;;;;;;;1.13;0.88;;;;;;;12.27;68.84;95679.22;4876080;28;20247;-81
2022/09/27 06:16:32;;;;;;;2.95;0.80;;;;;;;12.32;68.57;95671.28;4862650;28;20270;-80
2022/09/27 06:18:58;;;;;;;1.38;0.88;;;;;;;12.29;68.74;95668.47;4945540;23;20264;-81
2022/09/27 06:21:23;;;;;;;1.85;0.80;;;;;;;12.39;68.51;95670.88;4900349;28;20274;-80
2022/09/27 06:23:49;;;;;;;3.47;1.02;;;;;;;12.35;68.11;95664.69;4937036;23;20311;-80
2022/09/27 06:26:15;;;;;;;1.27;1.10;;;;;;;12.47;68.49;95680.63;4905480;28;20237;-81
2022/09/27 06:28:40;;;;;;;2.03;0.90;;;;;;;12.44;68.64;95673.38;4980577;23;20271;-80
2022/09/27 06:31:10;;;;;;;3.63;0.70;;;;;;;12.42;68.27;95680.72;4931317;28;20331;-80
2022/09/27 06:36:06;;;;;;;2.22;0.90;;;;;;;12.41;68.42;95688.88;4904785;28;20263;-81
2022/09/27 06:38:31;;;;;;;2.35;1.20;;;;;;;12.51;68.40;95678.22;4896722;28;20202;-80
2022/09/27 06:41:00;;;;;;;1.70;0.88;;;;;;;12.28;69.10;95683.34;4899770;28;20213;-80
2022/09/27 06:43:26;;;;;;;1.20;0.90;;;;;;;12.39;68.81;95683.13;4909537;28;20277;-80
2022/09/27 06:45:52;;;;;;;2.13;1.10;;;;;;;12.51;69.47;95686.03;5049623;22;20208;-79
2022/09/27 06:48:18;;;;;;;2.25;1.08;;;;;;;12.33;68.48;95685.09;4987110;23;20228;-81
2022/09/27 06:50:44;;;;;;;1.85;0.95;;;;;;;12.48;68.07;95687.38;4980827;23;20329;-80
2022/09/27 06:53:14;;;;;;;1.90;0.95;;;;;;;12.33;68.17;95698.13;4879057;28;20194;-80
2022/09/27 06:55:40;;;;;;;2.70;0.73;;;;;;;12.48;67.39;95692.59;4890917;28;20232;-80
2022/09/27 07:00:52;;;;;;;2.78;1.13;;;;;;;12.51;66.47;95707.69;4896042;28;20210;-80
2022/09/27 07:03:18;;;;;;;1.67;0.85;;;;;;;12.66;66.85;95703.22;4976108;23;20273;-80
2022/09/27 07:05:57;;;;;;;1.77;0.95;;;;;;;12.59;66.84;95715.91;5009640;23;20211;-81
2022/09/27 07:08:27;;;;;;;2.35;1.10;;;;;;;12.58;66.96;95711.72;4850341;29;20248;-79
2022/09/27 07:13:25;;;;;;;2.45;1.25;;;;;;;12.41;66.27;95715.72;4911536;28;20498;-80
2022/09/27 07:15:51;;;;;;;2.90;1.10;;;;;;;12.51;67.22;95717.38;4906289;23;20206;-80
2022/09/27 07:18:17;;;;;;;2.60;1.00;;;;;;;12.63;66.17;95728.09;4919124;28;20084;-82
2022/09/27 07:20:42;;;;;;;4.15;1.63;;;;;;;12.73;66.90;95733.09;4914545;28;20182;-80
2022/09/27 07:23:09;;;;;;;1.80;1.50;;;;;;;12.75;66.11;95730.19;4978542;23;20352;-82
2022/09/27 07:25:35;;;;;;;2.78;1.70;;;;;;;12.79;66.79;95731.13;4920426;28;20318;-81
2022/09/27 07:28:02;;;;;;;3.45;1.60;;;;;;;12.70;66.83;95731.06;4908354;28;20735;-81
2022/09/27 07:30:28;;;;;;;3.25;1.42;;;;;;;12.78;66.49;95724.38;4898449;28;20353;-80
2022/09/27 07:32:58;;;;;;;2.88;1.38;;;;;;;12.88;65.16;95733.84;4927916;28;20215;-81
2022/09/27 07:35:24;;;;;;;2.83;1.52;;;;;;;12.79;65.72;95731.13;4931573;28;20212;-81
2022/09/27 07:37:50;;;;;;;2.97;1.60;;;;;;;12.85;65.16;95737.81;4897657;28;20288;-81
2022/09/27 07:40:16;;;;;;;1.52;1.27;;;;;;;13.06;64.68;95740.00;4900481;28;20289;-82
2022/09/27 07:42:41;;;;;;;2.03;1.45;;;;;;;12.99;65.19;95744.81;4939981;28;20153;-81
2022/09/27 07:45:08;;;;;;;3.72;2.22;;;;;;;13.09;64.71;95744.59;4922529;28;20153;-80
2022/09/27 07:47:36;;;;;;;3.55;1.88;;;;;;;13.15;64.85;95742.66;4954465;28;20348;-81
2022/09/27 07:50:03;;;;;;;2.20;1.90;;;;;;;13.16;63.56;95741.59;4948525;28;20211;-80
2022/09/27 07:52:28;;;;;;;2.50;1.85;;;;;;;13.21;64.12;95742.25;4923022;28;20239;-81
2022/09/27 07:54:54;;;;;;;2.65;2.10;;;;;;;13.23;65.26;95740.13;4948286;28;20204;-81
2022/09/27 07:57:21;;;;;;;4.45;2.25;;;;;;;12.99;64.95;95742.22;4955091;28;20291;-81
2022/09/27 07:59:46;;;;;;;3.65;2.40;;;;;;;13.01;64.11;95746.09;4939349;28;20287;-80
2022/09/27 08:02:16;;;;;;;5.65;2.72;;;;;;;13.07;63.90;95750.16;4944072;28;20160;-80
2022/09/27 08:04:48;;;;;;;3.47;2.13;;;;;;;13.19;64.73;95752.22;4933255;28;20253;-82
2022/09/27 08:07:14;;;;;;;2.95;2.28;;;;;;;13.18;64.44;95753.31;4919700;28;20285;-81
2022/09/27 08:09:39;;;;;;;3.72;2.88;;;;;;;13.22;65.22;95759.47;4931890;28;20208;-80
2022/09/27 08:12:04;;;;;;;4.85;2.75;;;;;;;13.35;65.86;95757.13;4926385;28;20290;-80
2022/09/27 08:14:30;;;;;;;3.80;2.60;;;;;;;13.60;64.69;95759.16;4929731;28;20244;-80
2022/09/27 08:16:56;;;;;;;3.50;2.47;;;;;;;13.46;65.22;95755.84;4911557;28;20304;-80
2022/09/27 08:19:21;;;;;;;4.40;2.22;;;;;;;13.65;64.45;95756.41;4915156;28;20639;-80
2022/09/27 08:21:47;;;;;;;2.92;2.60;;;;;;;13.68;65.13;95765.53;4913236;28;20271;-82
2022/09/27 08:24:13;;;;;;;3.65;2.30;;;;;;;13.75;63.72;95760.63;4905642;28;20170;-80
2022/09/27 08:26:38;;;;;;;3.83;2.20;;;;;;;13.83;63.68;95762.53;4924715;28;20269;-80
2022/09/27 08:29:04;;;;;;;4.57;2.70;;;;;;;13.80;64.38;95757.88;4908525;28;20197;-80
2022/09/27 08:31:33;;;;;;;3.63;2.70;;;;;;;13.68;63.66;95755.81;4944103;28;20696;-80
2022/09/27 08:33:58;;;;;;;3.80;2.60;;;;;;;13.67;63.15;95770.00;4915718;28;20502;-81
2022/09/27 08:36:23;;;;;;;4.65;2.45;;;;;;;13.67;64.16;95769.19;4947073;28;20204;-80
2022/09/27 08:38:50;;;;;;;2.75;2.50;;;;;;;13.40;64.78;95763.03;4944043;28;20193;-80
2022/09/27 08:41:32;;;;;;;5.30;2.60;;;;;;;13.11;66.55;95769.38;4926248;28;20245;-79
2022/09/27 08:44:20;;;;;;;4.43;2.00;;;;;;;13.13;64.30;95769.09;4929653;28;20673;-80
2022/09/27 08:46:57;;;;;;;4.10;2.15;;;;;;;13.11;65.75;95776.47;4914745;28;20275;-80
2022/09/27 08:49:32;;;;;;;3.10;1.98;;;;;;;13.23;65.95;95771.47;4929790;28;20293;-80
2022/09/27 08:51:58;;;;;;;3.45;2.05;;;;;;;13.35;64.50;95783.28;4916445;28;20164;-81
2022/09/27 08:54:28;;;;;;;3.47;2.05;;;;;;;13.33;64.08;95780.94;4913248;28;20257;-80
2022/09/27 08:57:03;;;;;;;2.45;1.77;;;;;;;13.23;64.34;95770.69;4950004;28;20268;-80
2022/09/27 08:59:30;;;;;;;;;;;;;;;12.96;65.86;95788.00;4934250;28;20278;-80
2022/09/27 09:01:56;;;;;;;1.83;1.05;;;;;;;13.32;63.84;95778.66;4934250;28;20206;-81
2022/09/27 09:04:30;;;;;;;1.83;0.90;;;;;;;13.01;63.52;95781.91;4932410;28;20299;-81
2022/09/27 09:07:17;;;;;;;1.77;1.20;;;;;;;13.21;64.43;95785.91;4948029;28;20336;-80
2022/09/27 09:12:45;;;;;;;1.15;0.90;;;;;;;13.07;64.38;95788.56;4950204;28;20296;-80
2022/09/27 09:13:24;;;;;;;2.22;1.00;;;;;;;12.91;65.20;95795.94;4912359;28;20386;-81
2022/09/27 09:16:03;;;;;;;2.55;1.45;;;;;;;12.95;65.58;95796.91;4950169;28;20239;-80
2022/09/27 09:19:08;;;;;;;2.25;1.05;;;;;;;12.93;66.01;95804.25;4928696;28;20305;-80
2022/09/27 09:21:51;;;;;;;1.40;0.98;;;;;;;12.88;66.12;95796.53;4946781;28;20300;-81
2022/09/27 09:24:50;;;;;;;1.60;0.98;;;;;;;12.93;66.15;95805.03;4914451;28;20259;-80
2022/09/27 09:27:51;;;;;;;1.90;1.40;;;;;;;12.94;67.25;95795.38;4948339;28;20262;-80
2022/09/27 09:30:23;;;;;;;2.67;0.98;;;;;;;13.30;66.29;95789.38;4948836;28;20557;-80
2022/09/27 09:33:20;;;;;;;1.15;1.00;;;;;;;13.23;66.30;95781.94;4947661;28;20242;-80
2022/09/27 09:36:03;;;;;;;2.50;1.00;;;;;;;13.26;65.27;95785.78;4946907;28;20169;-81
2022/09/27 09:38:39;;;;;;;2.25;1.50;;;;;;;13.53;66.20;95781.56;4948374;28;20232;-80
2022/09/27 09:41:20;;;;;;;2.03;1.52;;;;;;;13.64;64.52;95781.03;4947887;28;20696;-80
2022/09/27 09:43:54;;;;;;;1.88;1.40;;;;;;;13.76;64.45;95777.09;4946282;28;20235;-80
2022/09/27 09:46:26;;;;;;;3.13;1.97;;;;;;;13.82;64.63;95778.53;4945034;28;20593;-81
2022/09/27 09:49:06;;;;;;;3.42;1.73;;;;;;;14.15;64.70;95778.22;4931387;28;20190;-80
2022/09/27 09:51:38;;;;;;;3.13;2.10;;;;;;;14.38;62.69;95777.09;4915824;28;20196;-81
2022/09/27 09:54:18;;;;;;;6.78;2.70;;;;;;;14.72;63.59;95775.69;4948007;28;20260;-80
2022/09/27 09:56:50;;;;;;;3.72;1.98;;;;;;;14.90;62.63;95778.34;4918116;28;20397;-80
2022/09/27 09:59:25;;;;;;;3.45;1.80;;;;;;;14.97;61.05;95771.53;4919563;28;20193;-81
2022/09/27 10:01:52;;;;;;;3.45;2.10;;;;;;;14.96;62.17;95770.03;4908728;28;20281;-81
2022/09/27 10:04:20;;;;;;;2.72;2.08;;;;;;;14.79;62.90;95762.91;4913724;28;20274;-81
2022/09/27 10:06:46;;;;;;;2.55;2.22;;;;;;;14.97;64.00;95761.06;4906152;28;20289;-80
2022/09/27 10:09:14;;;;;;;5.22;3.13;;;;;;;15.12;65.03;95756.47;4927784;28;20653;-81
2022/09/27 10:11:43;;;;;;;3.08;2.00;;;;;;;15.57;61.02;95753.50;4930584;28;20287;-80
2022/09/27 10:14:11;;;;;;;3.28;1.80;;;;;;;15.61;59.04;95751.03;4925115;28;20642;-81
2022/09/27 10:16:41;;;;;;;3.35;1.77;;;;;;;15.34;59.35;95750.28;4941713;28;20295;-82
2022/09/27 10:19:07;;;;;;;4.00;2.30;;;;;;;15.35;61.12;95751.81;4925724;28;20684;-82
2022/09/27 10:21:34;;;;;;;1.67;1.45;;;;;;;15.40;58.72;95749.03;4915218;28;20191;-81
2022/09/27 10:24:02;;;;;;;3.05;1.63;;;;;;;15.23;62.08;95751.69;4942386;28;20196;-81
2022/09/27 10:26:27;;;;;;;3.58;1.58;;;;;;;15.32;61.41;95750.59;4945055;28;20633;-81
2022/09/27 10:28:53;;;;;;;2.78;1.58;;;;;;;15.23;59.57;95749.06;4943393;28;20201;-81
2022/09/27 10:31:19;;;;;;;5.28;2.28;;;;;;;14.96;61.21;95743.06;4908259;28;20295;-81
2022/09/27 10:33:55;;;;;;;3.20;1.92;;;;;;;14.93;60.57;95741.03;4929434;28;20188;-80
2022/09/27 10:36:28;;;;;;;2.67;1.40;;;;;;;14.81;61.14;95748.72;4937333;28;20293;-80
2022/09/27 10:38:59;;;;;;;1.92;1.17;;;;;;;14.96;58.70;95748.28;4931223;28;20266;-81
2022/09/27 10:41:32;;;;;;;1.35;1.25;;;;;;;14.78;59.52;95747.47;4930617;28;20337;-82
2022/09/27 10:44:18;;;;;;;2.15;1.05;;;;;;;14.11;63.31;95740.66;4914484;28;20199;-81
2022/09/27 10:46:46;;;;;;;1.95;0.70;;;;;;;14.33;61.08;95742.44;4909694;28;20652;-80
2022/09/27 10:49:21;;;;;;;1.35;0.80;;;;;;;14.04;60.21;95747.06;4916845;28;20276;-78
2022/09/27 10:52:12;;;;;;;1.95;0.80;;;;;;;13.95;61.75;95750.72;4932335;28;20678;-81
2022/09/27 10:54:39;;;;;;;2.20;0.50;;;;;;;14.49;61.95;95742.78;4929767;28;20210;-80
2022/09/27 10:57:05;;;;;;;0.60;0.40;;;;;;;14.97;59.73;95747.19;4923797;28;20320;-80
2022/09/27 10:59:37;;;;;;;2.55;0.80;;;;;;;15.34;58.55;95740.56;4926339;28;20262;-81
2022/09/27 11:02:04;;;;;;;1.15;0.60;;;;;;;15.37;56.65;95728.69;4931575;28;20203;-81
2022/09/27 11:04:35;;;;;;;1.70;0.93;;;;;;;15.34;57.59;95731.94;4903159;28;20153;-80
2022/09/27 11:07:17;;;;;;;1.17;0.40;;;;;;;15.41;56.86;95720.97;4914101;28;20263;-80
2022/09/27 11:09:53;;;;;;;1.00;0.60;;;;;;;15.64;56.67;95729.41;4931048;28;20699;-81
2022/09/27 11:12:21;;;;;;;1.73;0.73;;;;;;;16.08;54.96;95716.97;4947125;28;20215;-81
2022/09/27 11:15:15;;;;;;;2.08;0.73;;;;;;;16.40;57.23;95717.41;4928410;28;20626;-80
2022/09/27 11:17:43;;;;;;;1.02;0.50;;;;;;;16.71;52.31;95721.56;4923325;28;20290;-80
2022/09/27 11:20:41;;;;;;;2.40;0.88;;;;;;;16.77;53.54;95712.41;4943986;28;20177;-80
2022/09/27 11:23:25;;;;;;;1.13;0.45;;;;;;;17.14;50.09;95707.38;4938953;28;20354;-80
2022/09/27 11:26:30;;;;;;;1.20;0.60;;;;;;;16.71;50.78;95721.56;4922143;28;20195;-81
2022/09/27 11:29:12;;;;;;;0.55;0.50;;;;;;;16.68;52.92;95728.25;4798645;29;20338;-81
2022/09/27 11:32:10;;;;;;;1.50;0.70;;;;;;;16.66;51.58;95719.91;4936167;28;20591;-81
2022/09/27 11:34:59;;;;;;;1.67;0.70;;;;;;;17.11;50.50;95705.41;4945090;28;20200;-81
2022/09/27 11:37:49;;;;;;;0.85;0.50;;;;;;;17.69;48.14;95714.13;4921252;28;20270;-81
2022/09/27 11:40:36;;;;;;;2.05;1.20;;;;;;;18.26;46.67;95707.31;4936797;28;20582;-82
2022/09/27 11:43:17;;;;;;;1.05;0.63;;;;;;;18.71;45.39;95701.13;4929386;28;20268;-82
2022/09/27 11:46:10;;;;;;;2.50;0.80;;;;;;;19.07;43.43;95690.81;4922341;28;20211;-82
2022/09/27 11:49:10;;;;;;;1.00;0.73;;;;;;;19.23;43.90;95696.91;4938336;28;20282;-81
2022/09/27 11:52:03;;;;;;;1.30;0.60;;;;;;;19.32;42.86;95696.00;4938688;28;20691;-81
2022/09/27 11:54:44;;;;;;;2.05;0.70;;;;;;;19.71;43.33;95689.09;4926011;28;20200;-81
2022/09/27 11:57:09;;;;;;;1.83;0.52;;;;;;;19.82;44.05;95692.00;4931554;28;20254;-82
2022/09/27 11:59:58;;;;;;;1.55;0.60;;;;;;;19.36;45.35;95686.31;4944203;28;20749;-80
2022/09/27 12:02:42;;;;;;;1.15;0.52;;;;;;;20.10;42.63;95683.22;4941793;28;20303;-81